sensor_id;sensor_type;location;lat;lon;timestamp;pressure;altitude;pressure_sealevel;temperature;humidity
61554;BME280;47425;51.976;5.326;2024-03-23T00:53:54;100944.91;;;15.34;54.42
61554;BME280;47425;51.976;5.326;2024-03-23T00:56:20;100933.72;;;15.27;54.50
61554;BME280;47425;51.976;5.326;2024-03-23T00:58:46;100927.41;;;15.32;54.06
61554;BME280;47425;51.976;5.326;2024-03-23T01:01:12;100929.75;;;15.39;54.41
61554;BME280;47425;51.976;5.326;2024-03-23T01:03:38;100932.19;;;15.22;53.57
61554;BME280;47425;51.976;5.326;2024-03-23T01:06:04;100922.78;;;14.91;53.83
61554;BME280;47425;51.976;5.326;2024-03-23T01:08:30;100930.66;;;14.92;54.58
61554;BME280;47425;51.976;5.326;2024-03-23T01:10:59;100926.31;;;14.66;53.61
61554;BME280;47425;51.976;5.326;2024-03-23T01:13:25;100920.44;;;14.58;55.13
61554;BME280;47425;51.976;5.326;2024-03-23T01:15:51;100922.78;;;14.67;55.44
61554;BME280;47425;51.976;5.326;2024-03-23T01:18:18;100916.13;;;14.81;55.30
61554;BME280;47425;51.976;5.326;2024-03-23T01:20:44;100915.38;;;14.77;54.82
61554;BME280;47425;51.976;5.326;2024-03-23T01:23:11;100903.53;;;14.65;55.53
61554;BME280;47425;51.976;5.326;2024-03-23T01:25:36;100906.03;;;14.68;55.65
61554;BME280;47425;51.976;5.326;2024-03-23T01:28:04;100897.63;;;14.82;55.20
61554;BME280;47425;51.976;5.326;2024-03-23T01:30:31;100895.84;;;14.83;54.77
61554;BME280;47425;51.976;5.326;2024-03-23T01:32:57;100892.28;;;14.84;55.33
61554;BME280;47425;51.976;5.326;2024-03-23T01:35:23;100887.59;;;14.92;55.39
61554;BME280;47425;51.976;5.326;2024-03-23T01:37:49;100882.63;;;15.06;55.21
61554;BME280;47425;51.976;5.326;2024-03-23T01:40:16;100877.13;;;15.13;54.94
61554;BME280;47425;51.976;5.326;2024-03-23T01:42:42;100876.94;;;15.17;55.11
61554;BME280;47425;51.976;5.326;2024-03-23T01:45:09;100870.81;;;15.17;54.42
61554;BME280;47425;51.976;5.326;2024-03-23T01:47:36;100870.00;;;15.15;54.50
61554;BME280;47425;51.976;5.326;2024-03-23T01:50:01;100869.28;;;15.11;54.45
61554;BME280;47425;51.976;5.326;2024-03-23T01:52:28;100865.34;;;15.21;55.16
61554;BME280;47425;51.976;5.326;2024-03-23T01:54:53;100865.34;;;15.21;54.58
61554;BME280;47425;51.976;5.326;2024-03-23T01:57:20;100867.16;;;15.21;54.50
61554;BME280;47425;51.976;5.326;2024-03-23T01:59:47;100863.47;;;15.03;54.07
61554;BME280;47425;51.976;5.326;2024-03-23T02:02:23;100868.19;;;14.93;54.65
61554;BME280;47425;51.976;5.326;2024-03-23T02:04:49;100866.44;;;14.93;54.85
61554;BME280;47425;51.976;5.326;2024-03-23T02:07:15;100864.25;;;15.05;55.15
61554;BME280;47425;51.976;5.326;2024-03-23T02:09:41;100868.19;;;15.17;54.92
61554;BME280;47425;51.976;5.326;2024-03-23T02:12:07;100868.59;;;15.28;54.88
61554;BME280;47425;51.976;5.326;2024-03-23T02:14:34;100867.88;;;15.47;55.19
61554;BME280;47425;51.976;5.326;2024-03-23T02:17:00;100864.63;;;15.62;54.52
61554;BME280;47425;51.976;5.326;2024-03-23T02:19:27;100867.50;;;15.78;54.13
61554;BME280;47425;51.976;5.326;2024-03-23T02:21:54;100867.19;;;15.64;52.85
61554;BME280;47425;51.976;5.326;2024-03-23T02:24:21;100858.50;;;15.39;53.55
61554;BME280;47425;51.976;5.326;2024-03-23T02:26:48;100856.34;;;15.27;54.02
61554;BME280;47425;51.976;5.326;2024-03-23T02:29:14;100853.59;;;15.30;54.37
61554;BME280;47425;51.976;5.326;2024-03-23T02:31:40;100850.19;;;15.26;54.15
61554;BME280;47425;51.976;5.326;2024-03-23T02:34:06;100846.88;;;15.21;54.52
61554;BME280;47425;51.976;5.326;2024-03-23T02:36:32;100844.00;;;15.27;54.81
61554;BME280;47425;51.976;5.326;2024-03-23T02:38:59;100842.41;;;15.46;54.51
61554;BME280;47425;51.976;5.326;2024-03-23T02:41:27;100849.31;;;15.50;53.58
61554;BME280;47425;51.976;5.326;2024-03-23T02:43:52;100843.41;;;15.43;54.32
61554;BME280;47425;51.976;5.326;2024-03-23T02:46:19;100848.63;;;15.44;53.94
61554;BME280;47425;51.976;5.326;2024-03-23T02:48:44;100853.72;;;15.27;53.60
61554;BME280;47425;51.976;5.326;2024-03-23T02:51:12;100847.81;;;15.20;54.28
61554;BME280;47425;51.976;5.326;2024-03-23T02:53:37;100855.41;;;15.28;54.38
61554;BME280;47425;51.976;5.326;2024-03-23T02:56:04;100846.47;;;15.32;53.73
61554;BME280;47425;51.976;5.326;2024-03-23T02:58:31;100843.03;;;15.30;54.27
61554;BME280;47425;51.976;5.326;2024-03-23T03:00:57;100842.53;;;15.42;53.61
61554;BME280;47425;51.976;5.326;2024-03-23T03:03:24;100843.22;;;15.48;53.99
61554;BME280;47425;51.976;5.326;2024-03-23T03:05:54;100840.19;;;15.35;53.68
61554;BME280;47425;51.976;5.326;2024-03-23T03:08:19;100845.75;;;15.29;53.49
61554;BME280;47425;51.976;5.326;2024-03-23T03:10:46;100844.16;;;15.24;53.79
61554;BME280;47425;51.976;5.326;2024-03-23T03:13:11;100850.34;;;15.23;53.49
61554;BME280;47425;51.976;5.326;2024-03-23T03:15:41;100850.63;;;15.16;53.07
61554;BME280;47425;51.976;5.326;2024-03-23T03:18:06;100843.22;;;15.03;54.34
61554;BME280;47425;51.976;5.326;2024-03-23T03:20:33;100844.06;;;15.04;54.67
61554;BME280;47425;51.976;5.326;2024-03-23T03:22:58;100835.78;;;14.91;54.16
61554;BME280;47425;51.976;5.326;2024-03-23T03:25:25;100842.28;;;15.04;54.81
61554;BME280;47425;51.976;5.326;2024-03-23T03:27:51;100840.91;;;15.18;54.51
61554;BME280;47425;51.976;5.326;2024-03-23T03:30:18;100840.25;;;15.33;54.68
61554;BME280;47425;51.976;5.326;2024-03-23T03:32:45;100838.13;;;15.21;53.57
61554;BME280;47425;51.976;5.326;2024-03-23T03:35:11;100837.50;;;15.14;53.61
61554;BME280;47425;51.976;5.326;2024-03-23T03:37:37;100837.38;;;15.17;54.25
61554;BME280;47425;51.976;5.326;2024-03-23T03:40:05;100831.38;;;15.36;54.17
61554;BME280;47425;51.976;5.326;2024-03-23T03:42:35;100832.78;;;15.44;53.91
61554;BME280;47425;51.976;5.326;2024-03-23T03:45:02;100827.69;;;15.40;53.46
61554;BME280;47425;51.976;5.326;2024-03-23T03:47:29;100822.16;;;15.46;53.11
61554;BME280;47425;51.976;5.326;2024-03-23T03:49:57;100822.22;;;15.44;53.21
61554;BME280;47425;51.976;5.326;2024-03-23T03:52:22;100819.31;;;15.51;53.69
61554;BME280;47425;51.976;5.326;2024-03-23T03:54:50;100816.38;;;15.58;53.21
61554;BME280;47425;51.976;5.326;2024-03-23T03:57:16;100813.94;;;15.54;53.20
61554;BME280;47425;51.976;5.326;2024-03-23T03:59:42;100814.66;;;15.57;52.83
61554;BME280;47425;51.976;5.326;2024-03-23T04:02:08;100813.00;;;15.55;52.94
61554;BME280;47425;51.976;5.326;2024-03-23T04:04:34;100820.88;;;15.56;52.95
61554;BME280;47425;51.976;5.326;2024-03-23T04:07:01;100817.50;;;15.53;52.74
61554;BME280;47425;51.976;5.326;2024-03-23T04:09:28;100812.66;;;15.42;53.48
61554;BME280;47425;51.976;5.326;2024-03-23T04:11:54;100812.72;;;15.40;53.24
61554;BME280;47425;51.976;5.326;2024-03-23T04:14:21;100802.28;;;15.37;52.93
61554;BME280;47425;51.976;5.326;2024-03-23T04:16:46;100803.94;;;15.40;53.37
61554;BME280;47425;51.976;5.326;2024-03-23T04:19:14;100809.88;;;15.45;53.04
61554;BME280;47425;51.976;5.326;2024-03-23T04:21:40;100801.50;;;15.56;53.51
61554;BME280;47425;51.976;5.326;2024-03-23T04:24:08;100804.28;;;15.53;52.96
61554;BME280;47425;51.976;5.326;2024-03-23T04:26:40;100809.28;;;15.59;53.24
61554;BME280;47425;51.976;5.326;2024-03-23T04:29:06;100802.94;;;15.65;52.97
61554;BME280;47425;51.976;5.326;2024-03-23T04:31:33;100801.66;;;15.73;53.06
61554;BME280;47425;51.976;5.326;2024-03-23T04:34:00;100799.81;;;15.75;52.81
61554;BME280;47425;51.976;5.326;2024-03-23T04:36:25;100793.38;;;15.83;53.36
61554;BME280;47425;51.976;5.326;2024-03-23T04:38:51;100799.84;;;15.96;52.80
61554;BME280;47425;51.976;5.326;2024-03-23T04:41:19;100797.41;;;15.91;52.23
61554;BME280;47425;51.976;5.326;2024-03-23T04:43:47;100801.75;;;15.92;52.21
61554;BME280;47425;51.976;5.326;2024-03-23T04:46:14;100795.88;;;15.86;52.06
61554;BME280;47425;51.976;5.326;2024-03-23T04:48:40;100794.41;;;15.78;52.63
61554;BME280;47425;51.976;5.326;2024-03-23T04:51:09;100799.31;;;15.67;52.01
61554;BME280;47425;51.976;5.326;2024-03-23T04:53:37;100790.34;;;15.49;52.52
61554;BME280;47425;51.976;5.326;2024-03-23T04:56:05;100789.59;;;15.47;52.58
61554;BME280;47425;51.976;5.326;2024-03-23T04:58:33;100785.00;;;15.30;52.07
61554;BME280;47425;51.976;5.326;2024-03-23T05:00:58;100789.84;;;15.19;53.51
61554;BME280;47425;51.976;5.326;2024-03-23T05:03:25;100779.66;;;15.32;53.54
61554;BME280;47425;51.976;5.326;2024-03-23T05:05:50;100786.66;;;15.33;52.92
61554;BME280;47425;51.976;5.326;2024-03-23T05:08:18;100784.59;;;15.19;52.46
61554;BME280;47425;51.976;5.326;2024-03-23T05:10:44;100779.84;;;15.05;52.98
61554;BME280;47425;51.976;5.326;2024-03-23T05:13:11;100784.06;;;15.09;53.68
61554;BME280;47425;51.976;5.326;2024-03-23T05:15:38;100781.59;;;15.26;53.42
61554;BME280;47425;51.976;5.326;2024-03-23T05:18:05;100794.47;;;15.14;52.64
61554;BME280;47425;51.976;5.326;2024-03-23T05:20:32;100794.31;;;15.17;53.11
61554;BME280;47425;51.976;5.326;2024-03-23T05:22:58;100806.16;;;15.06;52.61
61554;BME280;47425;51.976;5.326;2024-03-23T05:25:24;100805.44;;;15.03;53.07
61554;BME280;47425;51.976;5.326;2024-03-23T05:27:50;100805.53;;;15.00;52.83
61554;BME280;47425;51.976;5.326;2024-03-23T05:30:16;100805.44;;;15.03;52.91
61554;BME280;47425;51.976;5.326;2024-03-23T05:32:45;100801.25;;;14.97;53.10
61554;BME280;47425;51.976;5.326;2024-03-23T05:35:11;100805.25;;;14.85;53.19
61554;BME280;47425;51.976;5.326;2024-03-23T05:37:37;100813.16;;;14.85;52.68
61554;BME280;47425;51.976;5.326;2024-03-23T05:40:03;100814.91;;;14.85;53.71
61554;BME280;47425;51.976;5.326;2024-03-23T05:42:30;100810.34;;;14.66;52.41
61554;BME280;47425;51.976;5.326;2024-03-23T05:44:57;100808.75;;;14.60;53.54
61554;BME280;47425;51.976;5.326;2024-03-23T05:47:23;100806.00;;;14.65;52.91
61554;BME280;47425;51.976;5.326;2024-03-23T05:49:51;100807.00;;;14.61;52.50
61554;BME280;47425;51.976;5.326;2024-03-23T05:52:18;100807.34;;;14.28;52.93
61554;BME280;47425;51.976;5.326;2024-03-23T05:54:43;100807.84;;;14.14;53.18
61554;BME280;47425;51.976;5.326;2024-03-23T05:57:10;100802.13;;;14.26;54.54
61554;BME280;47425;51.976;5.326;2024-03-23T05:59:37;100798.81;;;14.69;54.63
61554;BME280;47425;51.976;5.326;2024-03-23T06:02:03;100790.59;;;15.00;53.50
61554;BME280;47425;51.976;5.326;2024-03-23T06:04:29;100796.16;;;15.15;53.71
61554;BME280;47425;51.976;5.326;2024-03-23T06:06:57;100799.59;;;15.17;52.83
61554;BME280;47425;51.976;5.326;2024-03-23T06:09:23;100797.44;;;15.26;53.04
61554;BME280;47425;51.976;5.326;2024-03-23T06:11:50;100795.63;;;15.29;52.05
61554;BME280;47425;51.976;5.326;2024-03-23T06:14:16;100809.25;;;15.18;51.58
61554;BME280;47425;51.976;5.326;2024-03-23T06:16:42;100808.84;;;15.05;52.64
61554;BME280;47425;51.976;5.326;2024-03-23T06:19:09;100809.59;;;15.08;53.31
61554;BME280;47425;51.976;5.326;2024-03-23T06:21:35;100802.16;;;15.18;52.86
61554;BME280;47425;51.976;5.326;2024-03-23T06:24:02;100803.31;;;15.33;52.90
61554;BME280;47425;51.976;5.326;2024-03-23T06:26:29;100799.09;;;15.51;52.02
61554;BME280;47425;51.976;5.326;2024-03-23T06:28:54;100790.97;;;15.56;51.63
61554;BME280;47425;51.976;5.326;2024-03-23T06:31:21;100791.53;;;15.42;50.72
61554;BME280;47425;51.976;5.326;2024-03-23T06:33:48;100787.44;;;15.35;52.21
61554;BME280;47425;51.976;5.326;2024-03-23T06:36:17;100789.97;;;15.16;51.71
61554;BME280;47425;51.976;5.326;2024-03-23T06:38:45;100794.53;;;15.12;51.54
61554;BME280;47425;51.976;5.326;2024-03-23T06:41:12;100799.84;;;14.88;51.84
61554;BME280;47425;51.976;5.326;2024-03-23T06:43:38;100786.78;;;15.07;52.72
61554;BME280;47425;51.976;5.326;2024-03-23T06:46:06;100790.25;;;15.30;52.17
61554;BME280;47425;51.976;5.326;2024-03-23T06:48:31;100789.22;;;15.55;52.39
61554;BME280;47425;51.976;5.326;2024-03-23T06:50:58;100791.66;;;15.82;51.28
61554;BME280;47425;51.976;5.326;2024-03-23T06:53:23;100791.19;;;15.92;51.03
61554;BME280;47425;51.976;5.326;2024-03-23T06:55:50;100798.13;;;15.95;50.77
61554;BME280;47425;51.976;5.326;2024-03-23T06:58:19;100798.13;;;15.52;50.61
61554;BME280;47425;51.976;5.326;2024-03-23T07:00:45;100794.56;;;15.53;51.02
61554;BME280;47425;51.976;5.326;2024-03-23T07:03:11;100805.06;;;15.55;50.65
61554;BME280;47425;51.976;5.326;2024-03-23T07:05:37;100794.34;;;15.59;50.48
61554;BME280;47425;51.976;5.326;2024-03-23T07:08:03;100796.69;;;15.45;49.94
61554;BME280;47425;51.976;5.326;2024-03-23T07:10:31;100802.28;;;15.37;50.98
61554;BME280;47425;51.976;5.326;2024-03-23T07:12:57;100801.94;;;15.24;49.94
61554;BME280;47425;51.976;5.326;2024-03-23T07:15:25;100800.41;;;15.19;50.83
61554;BME280;47425;51.976;5.326;2024-03-23T07:17:50;100804.38;;;14.85;50.04
61554;BME280;47425;51.976;5.326;2024-03-23T07:20:17;100800.81;;;14.86;51.63
61554;BME280;47425;51.976;5.326;2024-03-23T07:22:45;100798.66;;;14.96;51.55
61554;BME280;47425;51.976;5.326;2024-03-23T07:25:12;100794.38;;;14.71;50.77
61554;BME280;47425;51.976;5.326;2024-03-23T07:27:38;100797.38;;;14.60;50.80
61554;BME280;47425;51.976;5.326;2024-03-23T07:30:05;100795.03;;;14.52;51.30
61554;BME280;47425;51.976;5.326;2024-03-23T07:32:32;100794.81;;;14.58;51.51
61554;BME280;47425;51.976;5.326;2024-03-23T07:34:58;100790.50;;;14.56;51.57
61554;BME280;47425;51.976;5.326;2024-03-23T07:37:25;100799.53;;;14.49;52.62
61554;BME280;47425;51.976;5.326;2024-03-23T07:39:51;100797.59;;;14.54;51.56
61554;BME280;47425;51.976;5.326;2024-03-23T07:42:17;100790.38;;;14.35;51.78
61554;BME280;47425;51.976;5.326;2024-03-23T07:44:43;100793.66;;;14.18;51.19
61554;BME280;47425;51.976;5.326;2024-03-23T07:47:09;100807.41;;;14.26;52.67
61554;BME280;47425;51.976;5.326;2024-03-23T07:49:38;100806.09;;;14.38;52.82
61554;BME280;47425;51.976;5.326;2024-03-23T07:52:05;100792.59;;;14.48;52.53
61554;BME280;47425;51.976;5.326;2024-03-23T07:54:33;100799.66;;;14.46;51.55
61554;BME280;47425;51.976;5.326;2024-03-23T07:56:58;100794.75;;;14.60;51.38
61554;BME280;47425;51.976;5.326;2024-03-23T07:59:25;100796.50;;;14.59;51.08
61554;BME280;47425;51.976;5.326;2024-03-23T08:01:53;100799.91;;;14.63;52.08
61554;BME280;47425;51.976;5.326;2024-03-23T08:04:18;100788.41;;;14.66;49.77
61554;BME280;47425;51.976;5.326;2024-03-23T08:06:46;100793.38;;;14.50;50.14
61554;BME280;47425;51.976;5.326;2024-03-23T08:09:12;100805.19;;;14.63;51.09
61554;BME280;47425;51.976;5.326;2024-03-23T08:11:38;100792.88;;;14.62;50.75
61554;BME280;47425;51.976;5.326;2024-03-23T08:14:05;100791.53;;;14.75;51.53
61554;BME280;47425;51.976;5.326;2024-03-23T08:16:32;100791.03;;;14.89;50.22
61554;BME280;47425;51.976;5.326;2024-03-23T08:18:59;100787.00;;;15.01;50.81
61554;BME280;47425;51.976;5.326;2024-03-23T08:21:25;100782.31;;;15.09;49.25
61554;BME280;47425;51.976;5.326;2024-03-23T08:23:53;100787.47;;;15.13;49.94
61554;BME280;47425;51.976;5.326;2024-03-23T08:26:20;100792.91;;;14.86;49.11
61554;BME280;47425;51.976;5.326;2024-03-23T08:28:46;100797.63;;;14.77;49.84
61554;BME280;47425;51.976;5.326;2024-03-23T08:31:13;100789.53;;;15.04;49.64
61554;BME280;47425;51.976;5.326;2024-03-23T08:33:39;100790.03;;;15.14;50.12
61554;BME280;47425;51.976;5.326;2024-03-23T08:36:08;100796.53;;;15.27;49.55
61554;BME280;47425;51.976;5.326;2024-03-23T08:38:35;100800.41;;;15.19;48.48
61554;BME280;47425;51.976;5.326;2024-03-23T08:41:04;100805.78;;;15.16;49.37
61554;BME280;47425;51.976;5.326;2024-03-23T08:43:30;100796.53;;;15.27;50.11
61554;BME280;47425;51.976;5.326;2024-03-23T08:46:03;100804.19;;;15.34;48.96
61554;BME280;47425;51.976;5.326;2024-03-23T08:48:28;100804.88;;;15.17;48.55
61554;BME280;47425;51.976;5.326;2024-03-23T08:51:00;100803.75;;;15.22;49.54
61554;BME280;47425;51.976;5.326;2024-03-23T08:53:26;100795.78;;;15.46;49.26
61554;BME280;47425;51.976;5.326;2024-03-23T08:55:53;100807.00;;;15.51;48.42
61554;BME280;47425;51.976;5.326;2024-03-23T08:58:20;100801.81;;;15.48;48.88
61554;BME280;47425;51.976;5.326;2024-03-23T09:00:46;100793.56;;;15.35;48.02
61554;BME280;47425;51.976;5.326;2024-03-23T09:03:13;100796.34;;;15.32;49.55
61554;BME280;47425;51.976;5.326;2024-03-23T09:05:39;100788.31;;;15.35;49.23
61554;BME280;47425;51.976;5.326;2024-03-23T09:08:05;100788.59;;;15.50;49.55
61554;BME280;47425;51.976;5.326;2024-03-23T09:10:35;100773.16;;;15.40;48.79
61554;BME280;47425;51.976;5.326;2024-03-23T09:13:02;100774.78;;;15.43;49.30
61554;BME280;47425;51.976;5.326;2024-03-23T09:15:31;100773.69;;;15.69;49.46
61554;BME280;47425;51.976;5.326;2024-03-23T09:17:56;100762.84;;;15.55;48.34
61554;BME280;47425;51.976;5.326;2024-03-23T09:20:22;100781.22;;;15.58;49.13
61554;BME280;47425;51.976;5.326;2024-03-23T09:22:48;100780.25;;;15.59;47.95
61554;BME280;47425;51.976;5.326;2024-03-23T09:25:14;100770.59;;;15.80;49.90
61554;BME280;47425;51.976;5.326;2024-03-23T09:27:41;100773.03;;;16.05;48.05
61554;BME280;47425;51.976;5.326;2024-03-23T09:30:08;100776.25;;;15.71;47.28
61554;BME280;47425;51.976;5.326;2024-03-23T09:32:36;100767.13;;;15.37;48.56
61554;BME280;47425;51.976;5.326;2024-03-23T09:35:03;100769.09;;;15.32;49.00
61554;BME280;47425;51.976;5.326;2024-03-23T09:37:28;100764.09;;;15.67;49.50
61554;BME280;47425;51.976;5.326;2024-03-23T09:39:57;100762.78;;;15.77;49.77
61554;BME280;47425;51.976;5.326;2024-03-23T09:42:23;100758.97;;;15.64;47.00
61554;BME280;47425;51.976;5.326;2024-03-23T09:44:50;100750.31;;;15.60;48.50
61554;BME280;47425;51.976;5.326;2024-03-23T09:47:16;100760.31;;;15.94;48.74
61554;BME280;47425;51.976;5.326;2024-03-23T09:49:44;100767.50;;;15.91;47.26
61554;BME280;47425;51.976;5.326;2024-03-23T09:52:10;100778.81;;;15.52;48.14
61554;BME280;47425;51.976;5.326;2024-03-23T09:54:37;100783.53;;;15.23;48.13
61554;BME280;47425;51.976;5.326;2024-03-23T09:57:03;100775.31;;;15.08;48.36
61554;BME280;47425;51.976;5.326;2024-03-23T09:59:30;100778.44;;;14.96;48.84
61554;BME280;47425;51.976;5.326;2024-03-23T10:01:55;100782.25;;;15.11;48.35
61554;BME280;47425;51.976;5.326;2024-03-23T10:07:13;100775.19;;;15.54;49.74
61554;BME280;47425;51.976;5.326;2024-03-23T10:09:40;100767.97;;;15.37;48.93
61554;BME280;47425;51.976;5.326;2024-03-23T10:12:09;100760.50;;;15.26;46.90
61554;BME280;47425;51.976;5.326;2024-03-23T10:14:36;100774.03;;;15.19;49.28
61554;BME280;47425;51.976;5.326;2024-03-23T10:17:11;100772.34;;;15.38;48.44
61554;BME280;47425;51.976;5.326;2024-03-23T10:19:40;100771.84;;;15.71;48.85
61554;BME280;47425;51.976;5.326;2024-03-23T10:22:08;100768.69;;;15.84;45.97
61554;BME280;47425;51.976;5.326;2024-03-23T10:24:36;100765.69;;;15.71;48.06
61554;BME280;47425;51.976;5.326;2024-03-23T10:27:01;100767.22;;;15.76;47.81
61554;BME280;47425;51.976;5.326;2024-03-23T10:29:27;100767.66;;;15.66;46.51
61554;BME280;47425;51.976;5.326;2024-03-23T10:31:55;100763.34;;;15.22;46.01
61554;BME280;47425;51.976;5.326;2024-03-23T10:34:34;100764.47;;;15.16;48.38
61554;BME280;47425;51.976;5.326;2024-03-23T10:37:01;100767.97;;;15.37;48.80
61554;BME280;47425;51.976;5.326;2024-03-23T10:39:29;100771.94;;;15.48;48.28
61554;BME280;47425;51.976;5.326;2024-03-23T10:41:56;100765.63;;;15.52;46.58
61554;BME280;47425;51.976;5.326;2024-03-23T10:44:24;100760.03;;;15.59;47.64
61554;BME280;47425;51.976;5.326;2024-03-23T10:46:51;100766.56;;;15.71;47.05
61554;BME280;47425;51.976;5.326;2024-03-23T10:49:23;100765.44;;;15.56;47.11
61554;BME280;47425;51.976;5.326;2024-03-23T10:51:51;100768.47;;;15.88;47.48
61554;BME280;47425;51.976;5.326;2024-03-23T10:54:17;100764.34;;;15.83;45.49
61554;BME280;47425;51.976;5.326;2024-03-23T10:56:43;100768.00;;;15.78;47.54
61554;BME280;47425;51.976;5.326;2024-03-23T10:59:13;100771.91;;;15.70;45.89
61554;BME280;47425;51.976;5.326;2024-03-23T11:01:51;100754.22;;;15.72;46.68
61554;BME280;47425;51.976;5.326;2024-03-23T11:04:28;100757.22;;;15.85;46.50
61554;BME280;47425;51.976;5.326;2024-03-23T11:06:54;100777.22;;;15.68;45.65
61554;BME280;47425;51.976;5.326;2024-03-23T11:09:39;100765.31;;;15.80;46.90
61554;BME280;47425;51.976;5.326;2024-03-23T11:12:25;100762.69;;;15.80;45.07
61554;BME280;47425;51.976;5.326;2024-03-23T11:14:54;100751.56;;;15.72;45.92
61554;BME280;47425;51.976;5.326;2024-03-23T11:17:20;100754.75;;;15.59;46.27
61554;BME280;47425;51.976;5.326;2024-03-23T11:19:52;100756.94;;;15.50;45.63
61554;BME280;47425;51.976;5.326;2024-03-23T11:22:25;100754.00;;;15.35;46.36
61554;BME280;47425;51.976;5.326;2024-03-23T11:25:04;100759.34;;;15.34;45.30
61554;BME280;47425;51.976;5.326;2024-03-23T11:27:37;100756.09;;;15.27;46.46
61554;BME280;47425;51.976;5.326;2024-03-23T11:30:15;100743.38;;;15.57;47.23
61554;BME280;47425;51.976;5.326;2024-03-23T11:32:43;100744.25;;;15.58;46.46
61554;BME280;47425;51.976;5.326;2024-03-23T11:35:10;100739.75;;;15.60;44.91
61554;BME280;47425;51.976;5.326;2024-03-23T11:37:36;100741.94;;;15.50;46.52
61554;BME280;47425;51.976;5.326;2024-03-23T11:40:16;100749.13;;;15.67;44.65
61554;BME280;47425;51.976;5.326;2024-03-23T11:42:43;100734.34;;;15.42;44.63
61554;BME280;47425;51.976;5.326;2024-03-23T11:45:09;100738.03;;;15.59;44.35
61554;BME280;47425;51.976;5.326;2024-03-23T11:47:36;100743.06;;;15.65;44.99
61554;BME280;47425;51.976;5.326;2024-03-23T11:50:04;100743.47;;;15.76;46.01
61554;BME280;47425;51.976;5.326;2024-03-23T11:52:30;100747.28;;;15.69;45.77
61554;BME280;47425;51.976;5.326;2024-03-23T11:55:03;100739.72;;;15.82;46.18
61554;BME280;47425;51.976;5.326;2024-03-23T11:57:29;100747.78;;;15.77;45.31
61554;BME280;47425;51.976;5.326;2024-03-23T11:59:57;100746.75;;;16.02;46.13
61554;BME280;47425;51.976;5.326;2024-03-23T12:02:22;100743.06;;;16.06;44.38
61554;BME280;47425;51.976;5.326;2024-03-23T12:04:50;100743.03;;;15.87;44.91
61554;BME280;47425;51.976;5.326;2024-03-23T12:07:18;100733.31;;;15.67;45.10
61554;BME280;47425;51.976;5.326;2024-03-23T12:09:45;100721.34;;;15.58;43.47
61554;BME280;47425;51.976;5.326;2024-03-23T12:12:13;100723.56;;;15.26;42.95
61554;BME280;47425;51.976;5.326;2024-03-23T12:14:41;100721.59;;;15.32;44.46
61554;BME280;47425;51.976;5.326;2024-03-23T12:17:07;100720.41;;;15.39;44.98
61554;BME280;47425;51.976;5.326;2024-03-23T12:19:35;100730.38;;;15.53;42.76
61554;BME280;47425;51.976;5.326;2024-03-23T12:22:02;100720.00;;;15.48;43.46
61554;BME280;47425;51.976;5.326;2024-03-23T12:24:29;100722.84;;;15.64;45.54
61554;BME280;47425;51.976;5.326;2024-03-23T12:26:54;100719.16;;;15.68;42.66
61554;BME280;47425;51.976;5.326;2024-03-23T12:29:21;100712.94;;;15.90;45.29
61554;BME280;47425;51.976;5.326;2024-03-23T12:32:06;100708.78;;;16.05;44.01
61554;BME280;47425;51.976;5.326;2024-03-23T12:34:33;100718.28;;;16.09;43.77
61554;BME280;47425;51.976;5.326;2024-03-23T12:36:58;100706.75;;;15.91;43.11
61554;BME280;47425;51.976;5.326;2024-03-23T12:39:46;100709.28;;;15.94;43.49
61554;BME280;47425;51.976;5.326;2024-03-23T12:42:12;100709.00;;;15.80;43.33
61554;BME280;47425;51.976;5.326;2024-03-23T12:44:39;100706.91;;;15.67;42.49
61554;BME280;47425;51.976;5.326;2024-03-23T12:47:05;100714.22;;;15.60;44.64
61554;BME280;47425;51.976;5.326;2024-03-23T12:49:31;100712.22;;;15.66;44.84
61554;BME280;47425;51.976;5.326;2024-03-23T12:51:57;100703.28;;;15.70;44.71
61554;BME280;47425;51.976;5.326;2024-03-23T12:54:25;100705.25;;;15.85;45.70
61554;BME280;47425;51.976;5.326;2024-03-23T12:56:53;100707.91;;;16.04;43.48
61554;BME280;47425;51.976;5.326;2024-03-23T12:59:19;100696.34;;;15.88;43.78
61554;BME280;47425;51.976;5.326;2024-03-23T13:01:45;100706.63;;;15.94;45.43
61554;BME280;47425;51.976;5.326;2024-03-23T13:04:11;100702.50;;;16.07;43.19
61554;BME280;47425;51.976;5.326;2024-03-23T13:06:37;100699.88;;;15.87;44.43
61554;BME280;47425;51.976;5.326;2024-03-23T13:09:03;100701.34;;;15.73;42.75
61554;BME280;47425;51.976;5.326;2024-03-23T13:11:29;100691.31;;;15.61;43.01
61554;BME280;47425;51.976;5.326;2024-03-23T13:13:57;100697.25;;;15.46;44.38
61554;BME280;47425;51.976;5.326;2024-03-23T13:16:22;100699.13;;;15.43;44.61
61554;BME280;47425;51.976;5.326;2024-03-23T13:18:49;100706.41;;;15.57;45.37
61554;BME280;47425;51.976;5.326;2024-03-23T13:21:16;100706.91;;;15.67;42.42
61554;BME280;47425;51.976;5.326;2024-03-23T13:23:42;100697.47;;;15.41;45.09
61554;BME280;47425;51.976;5.326;2024-03-23T13:26:13;100699.44;;;15.56;45.39
61554;BME280;47425;51.976;5.326;2024-03-23T13:28:39;100711.19;;;15.49;44.08
61554;BME280;47425;51.976;5.326;2024-03-23T13:31:06;100720.00;;;15.27;44.41
61554;BME280;47425;51.976;5.326;2024-03-23T13:33:34;100709.81;;;14.98;44.51
61554;BME280;47425;51.976;5.326;2024-03-23T13:36:00;100707.53;;;15.10;46.16
61554;BME280;47425;51.976;5.326;2024-03-23T13:38:27;100700.94;;;14.78;44.98
61554;BME280;47425;51.976;5.326;2024-03-23T13:40:52;100701.06;;;14.51;45.97
61554;BME280;47425;51.976;5.326;2024-03-23T13:43:19;100698.97;;;14.61;46.73
61554;BME280;47425;51.976;5.326;2024-03-23T13:45:46;100697.34;;;14.57;45.26